PEK weather

Beijing Capital International Airport
Beijing, Beijing Municipality, China

Public forecast

Using degrees Celsius for public forecast. Weather courtesy of forecast.io.

Current aviation weather report (METAR) for Beijing Capital International Airport

Retrieved 2019/10/19 21:30 UTC (0 seconds ago):

ZBAA 192130Z VRB01MPS 2300 R01/0550V0800D R36R/P2000N R36L/1200VP2000U BR PRFG NSC 09/08 Q1019 NOSIG

Aviation forecast (TAF) for Beijing Capital International Airport

Retrieved 2019/10/19 18:03 UTC (3 hours ago):

TAF TAF ZBAA 191520Z 1918/2018 32004MPS 2400 BR NSC TX17/2007Z TN06/1922Z BECMG 2000/2001 3500